sensor_id;sensor_type;location;lat;lon;timestamp;P1;durP1;ratioP1;P2;durP2;ratioP2
82722;SDS011;72450;42.008;21.356;2024-03-17T00:01:55;26.20;;;15.55;;
82722;SDS011;72450;42.008;21.356;2024-03-17T00:04:21;25.33;;;17.02;;
82722;SDS011;72450;42.008;21.356;2024-03-17T00:06:47;27.52;;;14.98;;
82722;SDS011;72450;42.008;21.356;2024-03-17T00:09:13;24.10;;;15.73;;
82722;SDS011;72450;42.008;21.356;2024-03-17T00:11:41;22.20;;;14.15;;
82722;SDS011;72450;42.008;21.356;2024-03-17T00:14:07;27.20;;;16.05;;
82722;SDS011;72450;42.008;21.356;2024-03-17T00:16:33;24.20;;;14.43;;
82722;SDS011;72450;42.008;21.356;2024-03-17T00:18:59;24.08;;;13.63;;
82722;SDS011;72450;42.008;21.356;2024-03-17T00:21:25;21.30;;;13.77;;
82722;SDS011;72450;42.008;21.356;2024-03-17T00:23:51;18.52;;;13.93;;
82722;SDS011;72450;42.008;21.356;2024-03-17T00:26:17;22.48;;;15.88;;
82722;SDS011;72450;42.008;21.356;2024-03-17T00:28:47;24.90;;;13.57;;
82722;SDS011;72450;42.008;21.356;2024-03-17T00:31:16;25.48;;;16.42;;
82722;SDS011;72450;42.008;21.356;2024-03-17T00:33:42;23.67;;;16.45;;
82722;SDS011;72450;42.008;21.356;2024-03-17T00:36:09;26.08;;;15.52;;
82722;SDS011;72450;42.008;21.356;2024-03-17T00:38:35;25.27;;;15.60;;
82722;SDS011;72450;42.008;21.356;2024-03-17T00:41:02;19.88;;;13.18;;
82722;SDS011;72450;42.008;21.356;2024-03-17T00:43:28;21.45;;;15.18;;
82722;SDS011;72450;42.008;21.356;2024-03-17T00:45:54;22.90;;;15.85;;
82722;SDS011;72450;42.008;21.356;2024-03-17T00:48:21;24.30;;;13.73;;
82722;SDS011;72450;42.008;21.356;2024-03-17T00:50:50;19.90;;;13.52;;
82722;SDS011;72450;42.008;21.356;2024-03-17T00:53:19;22.77;;;14.85;;
82722;SDS011;72450;42.008;21.356;2024-03-17T00:55:50;21.83;;;14.13;;
82722;SDS011;72450;42.008;21.356;2024-03-17T00:58:16;21.73;;;13.23;;
82722;SDS011;72450;42.008;21.356;2024-03-17T01:00:42;19.20;;;12.73;;
82722;SDS011;72450;42.008;21.356;2024-03-17T01:03:08;18.27;;;12.63;;
82722;SDS011;72450;42.008;21.356;2024-03-17T01:05:34;16.35;;;11.27;;
82722;SDS011;72450;42.008;21.356;2024-03-17T01:08:07;17.30;;;11.02;;
82722;SDS011;72450;42.008;21.356;2024-03-17T01:10:33;14.20;;;9.40;;
82722;SDS011;72450;42.008;21.356;2024-03-17T01:12:59;14.07;;;9.90;;
82722;SDS011;72450;42.008;21.356;2024-03-17T01:15:25;15.00;;;10.00;;
82722;SDS011;72450;42.008;21.356;2024-03-17T01:17:51;12.82;;;8.63;;
82722;SDS011;72450;42.008;21.356;2024-03-17T01:20:17;12.65;;;9.38;;
82722;SDS011;72450;42.008;21.356;2024-03-17T01:22:44;13.13;;;10.35;;
82722;SDS011;72450;42.008;21.356;2024-03-17T01:25:10;15.40;;;10.60;;
82722;SDS011;72450;42.008;21.356;2024-03-17T01:27:36;11.23;;;8.55;;
82722;SDS011;72450;42.008;21.356;2024-03-17T01:30:02;15.27;;;8.80;;
82722;SDS011;72450;42.008;21.356;2024-03-17T01:32:28;14.63;;;10.23;;
82722;SDS011;72450;42.008;21.356;2024-03-17T01:34:54;15.35;;;8.95;;
82722;SDS011;72450;42.008;21.356;2024-03-17T01:37:21;14.82;;;9.23;;
82722;SDS011;72450;42.008;21.356;2024-03-17T01:39:47;12.63;;;8.40;;
82722;SDS011;72450;42.008;21.356;2024-03-17T01:42:14;12.90;;;7.68;;
82722;SDS011;72450;42.008;21.356;2024-03-17T01:44:40;12.38;;;7.95;;
82722;SDS011;72450;42.008;21.356;2024-03-17T01:47:06;13.20;;;8.68;;
82722;SDS011;72450;42.008;21.356;2024-03-17T01:49:34;11.70;;;8.23;;
82722;SDS011;72450;42.008;21.356;2024-03-17T01:52:01;12.40;;;9.18;;
82722;SDS011;72450;42.008;21.356;2024-03-17T01:54:28;12.20;;;9.23;;
82722;SDS011;72450;42.008;21.356;2024-03-17T01:56:56;12.85;;;9.85;;
82722;SDS011;72450;42.008;21.356;2024-03-17T01:59:22;15.20;;;9.98;;
82722;SDS011;72450;42.008;21.356;2024-03-17T02:01:48;14.55;;;9.70;;
82722;SDS011;72450;42.008;21.356;2024-03-17T02:04:14;12.63;;;9.40;;
82722;SDS011;72450;42.008;21.356;2024-03-17T02:06:42;14.07;;;9.32;;
82722;SDS011;72450;42.008;21.356;2024-03-17T02:09:08;13.18;;;9.07;;
82722;SDS011;72450;42.008;21.356;2024-03-17T02:11:35;16.25;;;11.13;;
82722;SDS011;72450;42.008;21.356;2024-03-17T02:14:01;14.65;;;9.43;;
82722;SDS011;72450;42.008;21.356;2024-03-17T02:16:27;13.18;;;9.35;;
82722;SDS011;72450;42.008;21.356;2024-03-17T02:18:56;15.77;;;9.93;;
82722;SDS011;72450;42.008;21.356;2024-03-17T02:21:23;15.43;;;10.63;;
82722;SDS011;72450;42.008;21.356;2024-03-17T02:23:50;15.50;;;9.48;;
82722;SDS011;72450;42.008;21.356;2024-03-17T02:26:16;14.77;;;8.55;;
82722;SDS011;72450;42.008;21.356;2024-03-17T02:28:44;14.10;;;10.13;;
82722;SDS011;72450;42.008;21.356;2024-03-17T02:31:10;13.27;;;10.60;;
82722;SDS011;72450;42.008;21.356;2024-03-17T02:33:37;13.38;;;9.13;;
82722;SDS011;72450;42.008;21.356;2024-03-17T02:36:03;11.88;;;8.85;;
82722;SDS011;72450;42.008;21.356;2024-03-17T02:38:32;15.27;;;10.50;;
82722;SDS011;72450;42.008;21.356;2024-03-17T02:41:17;12.82;;;9.25;;
82722;SDS011;72450;42.008;21.356;2024-03-17T02:43:48;13.50;;;9.32;;
82722;SDS011;72450;42.008;21.356;2024-03-17T02:46:15;14.57;;;8.88;;
82722;SDS011;72450;42.008;21.356;2024-03-17T02:48:41;12.93;;;9.55;;
82722;SDS011;72450;42.008;21.356;2024-03-17T02:51:15;12.38;;;9.13;;
82722;SDS011;72450;42.008;21.356;2024-03-17T02:53:42;13.60;;;9.52;;
82722;SDS011;72450;42.008;21.356;2024-03-17T02:56:09;14.20;;;9.23;;
82722;SDS011;72450;42.008;21.356;2024-03-17T02:58:36;19.13;;;9.68;;
82722;SDS011;72450;42.008;21.356;2024-03-17T03:01:02;10.98;;;8.32;;
82722;SDS011;72450;42.008;21.356;2024-03-17T03:05:55;10.98;;;8.80;;
82722;SDS011;72450;42.008;21.356;2024-03-17T03:08:26;13.05;;;9.48;;
82722;SDS011;72450;42.008;21.356;2024-03-17T03:10:52;10.20;;;8.00;;
82722;SDS011;72450;42.008;21.356;2024-03-17T03:13:18;12.57;;;8.40;;
82722;SDS011;72450;42.008;21.356;2024-03-17T03:15:46;14.07;;;9.90;;
82722;SDS011;72450;42.008;21.356;2024-03-17T03:18:12;13.13;;;8.80;;
82722;SDS011;72450;42.008;21.356;2024-03-17T03:20:39;13.15;;;8.35;;
82722;SDS011;72450;42.008;21.356;2024-03-17T03:23:05;11.70;;;8.20;;
82722;SDS011;72450;42.008;21.356;2024-03-17T03:25:31;13.25;;;9.07;;
82722;SDS011;72450;42.008;21.356;2024-03-17T03:27:57;12.70;;;7.65;;
82722;SDS011;72450;42.008;21.356;2024-03-17T03:30:24;12.05;;;8.32;;
82722;SDS011;72450;42.008;21.356;2024-03-17T03:32:50;11.18;;;7.85;;
82722;SDS011;72450;42.008;21.356;2024-03-17T03:35:16;11.13;;;7.00;;
82722;SDS011;72450;42.008;21.356;2024-03-17T03:37:42;12.48;;;6.88;;
82722;SDS011;72450;42.008;21.356;2024-03-17T03:40:08;10.07;;;6.47;;
82722;SDS011;72450;42.008;21.356;2024-03-17T03:42:41;9.73;;;7.65;;
82722;SDS011;72450;42.008;21.356;2024-03-17T03:45:08;8.02;;;5.38;;
82722;SDS011;72450;42.008;21.356;2024-03-17T03:47:37;8.98;;;6.05;;
82722;SDS011;72450;42.008;21.356;2024-03-17T03:50:03;8.10;;;6.35;;
82722;SDS011;72450;42.008;21.356;2024-03-17T03:52:30;9.23;;;6.50;;
82722;SDS011;72450;42.008;21.356;2024-03-17T03:54:56;7.65;;;5.20;;
82722;SDS011;72450;42.008;21.356;2024-03-17T03:57:22;10.73;;;7.55;;
82722;SDS011;72450;42.008;21.356;2024-03-17T03:59:53;10.63;;;7.35;;
82722;SDS011;72450;42.008;21.356;2024-03-17T04:04:46;12.40;;;7.03;;
82722;SDS011;72450;42.008;21.356;2024-03-17T04:07:13;9.25;;;5.93;;
82722;SDS011;72450;42.008;21.356;2024-03-17T04:09:39;11.40;;;6.72;;
82722;SDS011;72450;42.008;21.356;2024-03-17T04:12:05;8.75;;;6.47;;
82722;SDS011;72450;42.008;21.356;2024-03-17T04:14:32;8.13;;;5.97;;
82722;SDS011;72450;42.008;21.356;2024-03-17T04:16:58;7.90;;;5.90;;
82722;SDS011;72450;42.008;21.356;2024-03-17T04:19:24;9.13;;;6.20;;
82722;SDS011;72450;42.008;21.356;2024-03-17T04:21:51;10.35;;;7.38;;
82722;SDS011;72450;42.008;21.356;2024-03-17T04:24:17;10.48;;;7.25;;
82722;SDS011;72450;42.008;21.356;2024-03-17T04:26:43;10.77;;;6.95;;
82722;SDS011;72450;42.008;21.356;2024-03-17T04:29:09;10.43;;;7.22;;
82722;SDS011;72450;42.008;21.356;2024-03-17T04:31:35;9.73;;;7.55;;
82722;SDS011;72450;42.008;21.356;2024-03-17T04:36:28;11.77;;;7.25;;
82722;SDS011;72450;42.008;21.356;2024-03-17T04:38:54;8.82;;;7.13;;
82722;SDS011;72450;42.008;21.356;2024-03-17T04:41:21;8.82;;;6.35;;
82722;SDS011;72450;42.008;21.356;2024-03-17T04:43:47;10.82;;;7.72;;
82722;SDS011;72450;42.008;21.356;2024-03-17T04:46:13;11.25;;;7.75;;
82722;SDS011;72450;42.008;21.356;2024-03-17T04:48:40;12.13;;;7.28;;
82722;SDS011;72450;42.008;21.356;2024-03-17T04:51:06;14.90;;;7.97;;
82722;SDS011;72450;42.008;21.356;2024-03-17T04:53:32;12.48;;;6.78;;
82722;SDS011;72450;42.008;21.356;2024-03-17T04:56:02;12.60;;;8.27;;
82722;SDS011;72450;42.008;21.356;2024-03-17T04:58:29;10.27;;;7.80;;
82722;SDS011;72450;42.008;21.356;2024-03-17T05:00:55;11.85;;;8.20;;
82722;SDS011;72450;42.008;21.356;2024-03-17T05:03:22;11.18;;;7.45;;
82722;SDS011;72450;42.008;21.356;2024-03-17T05:05:48;8.15;;;4.97;;
82722;SDS011;72450;42.008;21.356;2024-03-17T05:08:14;8.50;;;6.68;;
82722;SDS011;72450;42.008;21.356;2024-03-17T05:10:40;8.00;;;5.70;;
82722;SDS011;72450;42.008;21.356;2024-03-17T05:13:06;10.07;;;6.72;;
82722;SDS011;72450;42.008;21.356;2024-03-17T05:15:32;12.38;;;6.35;;
82722;SDS011;72450;42.008;21.356;2024-03-17T05:17:58;11.77;;;5.90;;
82722;SDS011;72450;42.008;21.356;2024-03-17T05:20:24;10.05;;;6.03;;
82722;SDS011;72450;42.008;21.356;2024-03-17T05:22:50;9.85;;;7.15;;
82722;SDS011;72450;42.008;21.356;2024-03-17T05:25:16;8.45;;;5.95;;
82722;SDS011;72450;42.008;21.356;2024-03-17T05:27:42;8.90;;;6.10;;
82722;SDS011;72450;42.008;21.356;2024-03-17T05:30:09;8.60;;;6.47;;
82722;SDS011;72450;42.008;21.356;2024-03-17T05:32:36;10.98;;;6.45;;
82722;SDS011;72450;42.008;21.356;2024-03-17T05:35:03;9.38;;;6.65;;
82722;SDS011;72450;42.008;21.356;2024-03-17T05:37:29;8.27;;;6.50;;
82722;SDS011;72450;42.008;21.356;2024-03-17T05:39:55;8.77;;;6.63;;
82722;SDS011;72450;42.008;21.356;2024-03-17T05:42:21;9.15;;;6.43;;
82722;SDS011;72450;42.008;21.356;2024-03-17T05:44:47;7.68;;;5.63;;
82722;SDS011;72450;42.008;21.356;2024-03-17T05:47:18;8.30;;;6.85;;
82722;SDS011;72450;42.008;21.356;2024-03-17T05:49:44;8.98;;;6.22;;
82722;SDS011;72450;42.008;21.356;2024-03-17T05:52:11;10.07;;;7.70;;
82722;SDS011;72450;42.008;21.356;2024-03-17T05:54:37;10.68;;;7.13;;
82722;SDS011;72450;42.008;21.356;2024-03-17T05:57:03;13.50;;;8.05;;
82722;SDS011;72450;42.008;21.356;2024-03-17T05:59:30;9.75;;;6.05;;
82722;SDS011;72450;42.008;21.356;2024-03-17T06:01:56;8.98;;;6.47;;
82722;SDS011;72450;42.008;21.356;2024-03-17T06:04:22;10.70;;;7.28;;
82722;SDS011;72450;42.008;21.356;2024-03-17T06:06:49;10.02;;;7.28;;
82722;SDS011;72450;42.008;21.356;2024-03-17T06:09:15;9.23;;;6.13;;
82722;SDS011;72450;42.008;21.356;2024-03-17T06:11:44;10.25;;;6.18;;
82722;SDS011;72450;42.008;21.356;2024-03-17T06:16:38;10.85;;;6.47;;
82722;SDS011;72450;42.008;21.356;2024-03-17T06:19:04;11.00;;;7.38;;
82722;SDS011;72450;42.008;21.356;2024-03-17T06:21:31;10.65;;;7.35;;
82722;SDS011;72450;42.008;21.356;2024-03-17T06:23:58;10.23;;;6.97;;
82722;SDS011;72450;42.008;21.356;2024-03-17T06:26:24;10.43;;;6.70;;
82722;SDS011;72450;42.008;21.356;2024-03-17T06:28:51;11.57;;;7.10;;
82722;SDS011;72450;42.008;21.356;2024-03-17T06:31:17;14.05;;;8.43;;
82722;SDS011;72450;42.008;21.356;2024-03-17T06:33:43;15.52;;;8.57;;
82722;SDS011;72450;42.008;21.356;2024-03-17T06:36:10;13.10;;;7.40;;
82722;SDS011;72450;42.008;21.356;2024-03-17T06:38:36;11.60;;;7.28;;
82722;SDS011;72450;42.008;21.356;2024-03-17T06:41:02;14.85;;;8.50;;
82722;SDS011;72450;42.008;21.356;2024-03-17T06:43:28;12.20;;;7.45;;
82722;SDS011;72450;42.008;21.356;2024-03-17T06:45:58;10.30;;;7.20;;
82722;SDS011;72450;42.008;21.356;2024-03-17T06:48:25;10.70;;;7.35;;
82722;SDS011;72450;42.008;21.356;2024-03-17T06:50:52;9.32;;;6.85;;
82722;SDS011;72450;42.008;21.356;2024-03-17T06:53:21;10.23;;;6.50;;
82722;SDS011;72450;42.008;21.356;2024-03-17T06:55:57;9.55;;;6.00;;
82722;SDS011;72450;42.008;21.356;2024-03-17T06:58:23;11.85;;;7.40;;
82722;SDS011;72450;42.008;21.356;2024-03-17T07:00:55;11.13;;;6.28;;
82722;SDS011;72450;42.008;21.356;2024-03-17T07:03:25;9.38;;;6.25;;
82722;SDS011;72450;42.008;21.356;2024-03-17T07:06:00;8.73;;;6.50;;
82722;SDS011;72450;42.008;21.356;2024-03-17T07:08:30;9.13;;;6.43;;
82722;SDS011;72450;42.008;21.356;2024-03-17T07:10:57;8.23;;;5.78;;
82722;SDS011;72450;42.008;21.356;2024-03-17T07:13:24;10.63;;;5.68;;
82722;SDS011;72450;42.008;21.356;2024-03-17T07:15:50;9.98;;;5.72;;
82722;SDS011;72450;42.008;21.356;2024-03-17T07:18:16;7.22;;;5.60;;
82722;SDS011;72450;42.008;21.356;2024-03-17T07:20:42;9.63;;;6.20;;
82722;SDS011;72450;42.008;21.356;2024-03-17T07:23:08;9.55;;;6.32;;
82722;SDS011;72450;42.008;21.356;2024-03-17T07:25:35;10.55;;;6.00;;
82722;SDS011;72450;42.008;21.356;2024-03-17T07:28:02;9.30;;;5.72;;
82722;SDS011;72450;42.008;21.356;2024-03-17T07:30:28;8.55;;;5.60;;
82722;SDS011;72450;42.008;21.356;2024-03-17T07:32:54;9.63;;;5.90;;
82722;SDS011;72450;42.008;21.356;2024-03-17T07:35:20;8.32;;;5.50;;
82722;SDS011;72450;42.008;21.356;2024-03-17T07:37:46;8.35;;;5.55;;
82722;SDS011;72450;42.008;21.356;2024-03-17T07:40:12;8.88;;;5.25;;
82722;SDS011;72450;42.008;21.356;2024-03-17T07:42:40;9.10;;;5.55;;
82722;SDS011;72450;42.008;21.356;2024-03-17T07:45:07;9.77;;;5.25;;
82722;SDS011;72450;42.008;21.356;2024-03-17T07:47:34;8.18;;;5.63;;
82722;SDS011;72450;42.008;21.356;2024-03-17T07:50:03;8.23;;;4.70;;
82722;SDS011;72450;42.008;21.356;2024-03-17T07:52:30;7.45;;;4.95;;
82722;SDS011;72450;42.008;21.356;2024-03-17T07:54:56;6.10;;;4.80;;
82722;SDS011;72450;42.008;21.356;2024-03-17T07:57:23;7.20;;;4.40;;
82722;SDS011;72450;42.008;21.356;2024-03-17T07:59:52;7.18;;;4.95;;
82722;SDS011;72450;42.008;21.356;2024-03-17T08:02:18;8.15;;;4.70;;
82722;SDS011;72450;42.008;21.356;2024-03-17T08:04:44;6.35;;;4.45;;
82722;SDS011;72450;42.008;21.356;2024-03-17T08:07:10;10.60;;;5.38;;
82722;SDS011;72450;42.008;21.356;2024-03-17T08:09:36;8.68;;;4.63;;
82722;SDS011;72450;42.008;21.356;2024-03-17T08:12:02;10.07;;;4.80;;
82722;SDS011;72450;42.008;21.356;2024-03-17T08:16:56;8.75;;;4.80;;
82722;SDS011;72450;42.008;21.356;2024-03-17T08:19:22;11.30;;;5.75;;
82722;SDS011;72450;42.008;21.356;2024-03-17T08:21:48;8.70;;;5.43;;
82722;SDS011;72450;42.008;21.356;2024-03-17T08:24:14;10.52;;;5.50;;
82722;SDS011;72450;42.008;21.356;2024-03-17T08:26:40;10.27;;;5.32;;
82722;SDS011;72450;42.008;21.356;2024-03-17T08:29:06;11.57;;;5.30;;
82722;SDS011;72450;42.008;21.356;2024-03-17T08:31:32;9.73;;;5.93;;
82722;SDS011;72450;42.008;21.356;2024-03-17T08:33:58;8.70;;;5.38;;
82722;SDS011;72450;42.008;21.356;2024-03-17T08:36:24;7.88;;;4.55;;
82722;SDS011;72450;42.008;21.356;2024-03-17T08:38:51;10.00;;;5.43;;
82722;SDS011;72450;42.008;21.356;2024-03-17T08:43:44;7.18;;;4.53;;
82722;SDS011;72450;42.008;21.356;2024-03-17T08:46:10;5.30;;;3.97;;
82722;SDS011;72450;42.008;21.356;2024-03-17T08:48:39;7.25;;;4.55;;
82722;SDS011;72450;42.008;21.356;2024-03-17T08:51:05;4.60;;;3.33;;
82722;SDS011;72450;42.008;21.356;2024-03-17T08:53:32;5.68;;;3.72;;
82722;SDS011;72450;42.008;21.356;2024-03-17T08:55:58;3.25;;;2.60;;
82722;SDS011;72450;42.008;21.356;2024-03-17T08:58:25;3.88;;;2.92;;
82722;SDS011;72450;42.008;21.356;2024-03-17T09:00:51;5.50;;;3.17;;
82722;SDS011;72450;42.008;21.356;2024-03-17T09:03:17;6.63;;;4.95;;
82722;SDS011;72450;42.008;21.356;2024-03-17T09:05:44;6.53;;;4.57;;
82722;SDS011;72450;42.008;21.356;2024-03-17T09:10:40;6.15;;;3.55;;
82722;SDS011;72450;42.008;21.356;2024-03-17T09:13:06;7.05;;;3.60;;
82722;SDS011;72450;42.008;21.356;2024-03-17T09:15:32;6.53;;;3.70;;
82722;SDS011;72450;42.008;21.356;2024-03-17T09:17:58;6.63;;;4.10;;
82722;SDS011;72450;42.008;21.356;2024-03-17T09:20:24;12.90;;;6.40;;
82722;SDS011;72450;42.008;21.356;2024-03-17T09:22:50;8.05;;;5.45;;
82722;SDS011;72450;42.008;21.356;2024-03-17T09:25:17;7.38;;;4.60;;
82722;SDS011;72450;42.008;21.356;2024-03-17T09:27:43;7.43;;;4.65;;
82722;SDS011;72450;42.008;21.356;2024-03-17T09:30:09;7.07;;;4.38;;
82722;SDS011;72450;42.008;21.356;2024-03-17T09:32:36;7.38;;;4.45;;
82722;SDS011;72450;42.008;21.356;2024-03-17T09:35:03;7.20;;;4.90;;
82722;SDS011;72450;42.008;21.356;2024-03-17T09:37:30;10.23;;;7.05;;
82722;SDS011;72450;42.008;21.356;2024-03-17T09:39:59;9.00;;;5.90;;
82722;SDS011;72450;42.008;21.356;2024-03-17T09:42:25;11.52;;;6.75;;
82722;SDS011;72450;42.008;21.356;2024-03-17T09:44:55;6.63;;;5.40;;
82722;SDS011;72450;42.008;21.356;2024-03-17T09:47:24;11.05;;;7.00;;
82722;SDS011;72450;42.008;21.356;2024-03-17T09:49:51;11.82;;;7.78;;
82722;SDS011;72450;42.008;21.356;2024-03-17T09:52:19;9.30;;;6.28;;
82722;SDS011;72450;42.008;21.356;2024-03-17T09:54:46;8.55;;;6.03;;
82722;SDS011;72450;42.008;21.356;2024-03-17T09:57:16;12.30;;;5.95;;
82722;SDS011;72450;42.008;21.356;2024-03-17T09:59:42;10.38;;;6.75;;
82722;SDS011;72450;42.008;21.356;2024-03-17T10:02:16;8.48;;;6.10;;
82722;SDS011;72450;42.008;21.356;2024-03-17T10:04:43;9.65;;;6.07;;
82722;SDS011;72450;42.008;21.356;2024-03-17T10:07:09;9.85;;;6.85;;
82722;SDS011;72450;42.008;21.356;2024-03-17T10:09:36;12.10;;;7.03;;
82722;SDS011;72450;42.008;21.356;2024-03-17T10:12:04;10.95;;;6.95;;
82722;SDS011;72450;42.008;21.356;2024-03-17T10:14:31;12.13;;;6.05;;
82722;SDS011;72450;42.008;21.356;2024-03-17T10:19:24;12.25;;;6.97;;
82722;SDS011;72450;42.008;21.356;2024-03-17T10:21:58;13.18;;;7.40;;
82722;SDS011;72450;42.008;21.356;2024-03-17T10:24:26;13.40;;;7.68;;
82722;SDS011;72450;42.008;21.356;2024-03-17T10:26:57;14.93;;;7.97;;
82722;SDS011;72450;42.008;21.356;2024-03-17T10:31:56;14.75;;;7.13;;
82722;SDS011;72450;42.008;21.356;2024-03-17T10:34:23;11.18;;;5.88;;
82722;SDS011;72450;42.008;21.356;2024-03-17T10:36:50;11.43;;;5.97;;
82722;SDS011;72450;42.008;21.356;2024-03-17T10:39:22;11.05;;;7.07;;
82722;SDS011;72450;42.008;21.356;2024-03-17T10:41:54;12.70;;;7.30;;
82722;SDS011;72450;42.008;21.356;2024-03-17T10:44:22;13.38;;;5.90;;
82722;SDS011;72450;42.008;21.356;2024-03-17T10:46:48;12.30;;;6.45;;
82722;SDS011;72450;42.008;21.356;2024-03-17T10:51:41;11.35;;;6.75;;
82722;SDS011;72450;42.008;21.356;2024-03-17T10:54:14;11.57;;;7.32;;
82722;SDS011;72450;42.008;21.356;2024-03-17T10:56:47;17.17;;;7.10;;
82722;SDS011;72450;42.008;21.356;2024-03-17T10:59:13;14.00;;;6.88;;
82722;SDS011;72450;42.008;21.356;2024-03-17T11:01:40;10.63;;;7.28;;
82722;SDS011;72450;42.008;21.356;2024-03-17T11:04:08;10.27;;;6.05;;
82722;SDS011;72450;42.008;21.356;2024-03-17T11:06:38;10.77;;;6.80;;
82722;SDS011;72450;42.008;21.356;2024-03-17T11:09:04;9.32;;;6.35;;
82722;SDS011;72450;42.008;21.356;2024-03-17T11:11:36;9.45;;;6.72;;
82722;SDS011;72450;42.008;21.356;2024-03-17T11:14:20;10.02;;;6.78;;
82722;SDS011;72450;42.008;21.356;2024-03-17T11:16:47;11.15;;;7.40;;
82722;SDS011;72450;42.008;21.356;2024-03-17T11:19:17;11.63;;;7.13;;
82722;SDS011;72450;42.008;21.356;2024-03-17T11:21:43;9.75;;;6.45;;
82722;SDS011;72450;42.008;21.356;2024-03-17T11:24:19;10.15;;;6.47;;
82722;SDS011;72450;42.008;21.356;2024-03-17T11:26:46;10.57;;;7.28;;
82722;SDS011;72450;42.008;21.356;2024-03-17T11:29:28;13.88;;;8.27;;
82722;SDS011;72450;42.008;21.356;2024-03-17T11:31:54;11.80;;;7.57;;
82722;SDS011;72450;42.008;21.356;2024-03-17T11:36:56;12.18;;;8.75;;
82722;SDS011;72450;42.008;21.356;2024-03-17T11:42:36;12.00;;;7.43;;
82722;SDS011;72450;42.008;21.356;2024-03-17T11:45:04;10.85;;;7.07;;
82722;SDS011;72450;42.008;21.356;2024-03-17T11:47:39;11.40;;;7.55;;
82722;SDS011;72450;42.008;21.356;2024-03-17T11:50:06;15.60;;;9.65;;
82722;SDS011;72450;42.008;21.356;2024-03-17T11:52:36;14.82;;;8.25;;
82722;SDS011;72450;42.008;21.356;2024-03-17T11:55:03;19.77;;;12.23;;
82722;SDS011;72450;42.008;21.356;2024-03-17T11:57:30;13.82;;;9.70;;
82722;SDS011;72450;42.008;21.356;2024-03-17T11:59:56;14.15;;;10.10;;
82722;SDS011;72450;42.008;21.356;2024-03-17T12:02:26;11.68;;;8.15;;
82722;SDS011;72450;42.008;21.356;2024-03-17T12:04:53;14.45;;;9.63;;
82722;SDS011;72450;42.008;21.356;2024-03-17T12:07:20;15.90;;;9.70;;
82722;SDS011;72450;42.008;21.356;2024-03-17T12:09:48;14.02;;;8.38;;
82722;SDS011;72450;42.008;21.356;2024-03-17T12:12:18;12.75;;;7.80;;
82722;SDS011;72450;42.008;21.356;2024-03-17T12:14:45;12.00;;;7.90;;
82722;SDS011;72450;42.008;21.356;2024-03-17T12:17:11;12.65;;;7.80;;
82722;SDS011;72450;42.008;21.356;2024-03-17T12:19:39;10.05;;;6.00;;
82722;SDS011;72450;42.008;21.356;2024-03-17T12:22:07;13.38;;;7.30;;
82722;SDS011;72450;42.008;21.356;2024-03-17T12:24:35;10.25;;;7.35;;
82722;SDS011;72450;42.008;21.356;2024-03-17T12:27:03;9.98;;;6.60;;
82722;SDS011;72450;42.008;21.356;2024-03-17T12:29:34;9.55;;;6.93;;
82722;SDS011;72450;42.008;21.356;2024-03-17T12:34:32;12.63;;;6.82;;
82722;SDS011;72450;42.008;21.356;2024-03-17T12:36:59;28.52;;;21.50;;
82722;SDS011;72450;42.008;21.356;2024-03-17T12:42:11;9.15;;;6.03;;
82722;SDS011;72450;42.008;21.356;2024-03-17T12:44:52;9.90;;;6.50;;
82722;SDS011;72450;42.008;21.356;2024-03-17T12:47:19;13.77;;;6.85;;
82722;SDS011;72450;42.008;21.356;2024-03-17T12:49:49;6.95;;;4.15;;
82722;SDS011;72450;42.008;21.356;2024-03-17T12:52:18;8.75;;;5.80;;
82722;SDS011;72450;42.008;21.356;2024-03-17T12:57:31;10.00;;;6.10;;
82722;SDS011;72450;42.008;21.356;2024-03-17T13:00:20;8.55;;;6.05;;
82722;SDS011;72450;42.008;21.356;2024-03-17T13:03:04;8.55;;;5.15;;
82722;SDS011;72450;42.008;21.356;2024-03-17T13:07:56;12.60;;;5.90;;
82722;SDS011;72450;42.008;21.356;2024-03-17T13:10:23;10.63;;;5.85;;
82722;SDS011;72450;42.008;21.356;2024-03-17T13:13:02;8.75;;;6.20;;
82722;SDS011;72450;42.008;21.356;2024-03-17T13:15:29;8.48;;;5.55;;
82722;SDS011;72450;42.008;21.356;2024-03-17T13:18:09;10.25;;;6.57;;
82722;SDS011;72450;42.008;21.356;2024-03-17T13:20:35;8.40;;;6.25;;
82722;SDS011;72450;42.008;21.356;2024-03-17T13:23:01;8.75;;;6.63;;
82722;SDS011;72450;42.008;21.356;2024-03-17T13:25:29;8.27;;;5.45;;
82722;SDS011;72450;42.008;21.356;2024-03-17T13:27:59;8.95;;;5.55;;
82722;SDS011;72450;42.008;21.356;2024-03-17T13:30:26;9.63;;;6.30;;
82722;SDS011;72450;42.008;21.356;2024-03-17T13:32:54;9.57;;;6.38;;
82722;SDS011;72450;42.008;21.356;2024-03-17T13:35:24;9.18;;;6.38;;
82722;SDS011;72450;42.008;21.356;2024-03-17T13:40:17;11.10;;;6.03;;
82722;SDS011;72450;42.008;21.356;2024-03-17T13:42:47;9.82;;;6.45;;
82722;SDS011;72450;42.008;21.356;2024-03-17T13:45:14;10.52;;;6.90;;
82722;SDS011;72450;42.008;21.356;2024-03-17T13:47:40;10.73;;;6.20;;
82722;SDS011;72450;42.008;21.356;2024-03-17T13:50:07;9.18;;;6.40;;
82722;SDS011;72450;42.008;21.356;2024-03-17T13:52:38;8.75;;;5.57;;
82722;SDS011;72450;42.008;21.356;2024-03-17T13:55:04;8.82;;;6.43;;
82722;SDS011;72450;42.008;21.356;2024-03-17T13:57:32;10.52;;;6.82;;
82722;SDS011;72450;42.008;21.356;2024-03-17T13:59:58;9.10;;;6.07;;
82722;SDS011;72450;42.008;21.356;2024-03-17T14:02:24;10.80;;;6.38;;
82722;SDS011;72450;42.008;21.356;2024-03-17T14:04:50;9.00;;;6.20;;
82722;SDS011;72450;42.008;21.356;2024-03-17T14:07:16;8.48;;;4.85;;
82722;SDS011;72450;42.008;21.356;2024-03-17T14:09:42;8.85;;;6.00;;
82722;SDS011;72450;42.008;21.356;2024-03-17T14:12:08;6.70;;;5.18;;
82722;SDS011;72450;42.008;21.356;2024-03-17T14:14:34;6.07;;;4.22;;
82722;SDS011;72450;42.008;21.356;2024-03-17T14:17:01;6.30;;;4.72;;
82722;SDS011;72450;42.008;21.356;2024-03-17T14:19:27;5.85;;;3.72;;
82722;SDS011;72450;42.008;21.356;2024-03-17T14:21:53;8.10;;;4.93;;
82722;SDS011;72450;42.008;21.356;2024-03-17T14:24:19;9.23;;;6.32;;
82722;SDS011;72450;42.008;21.356;2024-03-17T14:26:46;7.25;;;4.75;;
82722;SDS011;72450;42.008;21.356;2024-03-17T14:29:12;7.10;;;4.60;;
82722;SDS011;72450;42.008;21.356;2024-03-17T14:31:39;6.05;;;4.53;;
82722;SDS011;72450;42.008;21.356;2024-03-17T14:34:09;8.00;;;5.68;;
82722;SDS011;72450;42.008;21.356;2024-03-17T14:36:35;7.95;;;5.25;;
82722;SDS011;72450;42.008;21.356;2024-03-17T14:39:02;8.95;;;5.20;;
82722;SDS011;72450;42.008;21.356;2024-03-17T14:41:28;9.57;;;5.95;;
82722;SDS011;72450;42.008;21.356;2024-03-17T14:43:55;8.52;;;5.28;;
82722;SDS011;72450;42.008;21.356;2024-03-17T14:46:22;8.95;;;5.70;;
82722;SDS011;72450;42.008;21.356;2024-03-17T14:48:48;8.50;;;5.90;;
82722;SDS011;72450;42.008;21.356;2024-03-17T14:51:16;8.68;;;5.85;;
82722;SDS011;72450;42.008;21.356;2024-03-17T14:53:42;13.10;;;8.48;;
82722;SDS011;72450;42.008;21.356;2024-03-17T14:56:13;11.13;;;7.32;;
82722;SDS011;72450;42.008;21.356;2024-03-17T14:58:41;7.88;;;6.22;;
82722;SDS011;72450;42.008;21.356;2024-03-17T15:01:07;11.05;;;7.40;;
82722;SDS011;72450;42.008;21.356;2024-03-17T15:03:34;12.57;;;6.65;;
82722;SDS011;72450;42.008;21.356;2024-03-17T15:06:00;11.38;;;6.93;;
82722;SDS011;72450;42.008;21.356;2024-03-17T15:08:29;10.88;;;6.88;;
82722;SDS011;72450;42.008;21.356;2024-03-17T15:10:55;12.27;;;7.65;;